^^
Meteo Knjazevac Station Historical Data
Daily Summary for February 3, 2021 Units:  English    Metric   Both
Daily Weekly Monthly Yearly Custom
  High: Low: Average:
Temperature: 43.7 °F 37.4 °F 40.1 °F
Dew Point: 43.4 °F 37.1 °F 39.8 °F
Humidity: 99% 99% 99%
Wind Speed: 3mph 0mph 1.4mph
Wind Gust: 7mph - -
Wind- - West
Pressure: 30.03 in 29.98 in -
Precipitation: 0.00 in    
Historical Graphs
 
 
Tabular Data for February 3, 2021
Time Temperature Dew Point Pressure Wind Wind Speed Wind Gust Humidity Rainfall Rate (Hourly) solar Conditions
00:00 43.7 °F 43.4 °F 29.98 in WSW 2 mph 5 mph 99% 0.00 in 0 W/m2
00:10 43.7 °F 43.4 °F 29.98 in West 3 mph 4 mph 99% 0.00 in 0 W/m2
00:20 43.5 °F 43.3 °F 29.98 in West 3 mph 6 mph 99% 0.00 in 0 W/m2
00:30 43.3 °F 43.1 °F 29.98 in WSW 2 mph 5 mph 99% 0.00 in 0 W/m2
00:40 43.2 °F 42.9 °F 29.99 in WSW 1 mph 3 mph 99% 0.00 in 0 W/m2
00:50 42.8 °F 42.5 °F 29.99 in WSW 1 mph 3 mph 99% 0.00 in 0 W/m2
01:00 42.4 °F 42.2 °F 29.99 in WSW 1 mph 2 mph 99% 0.00 in 0 W/m2
01:10 42.3 °F 42 °F 29.98 in West 2 mph 4 mph 99% 0.00 in 0 W/m2
01:20 41.9 °F 41.6 °F 29.98 in West 2 mph 3 mph 99% 0.00 in 0 W/m2
01:30 41.7 °F 41.5 °F 29.99 in West 2 mph 5 mph 99% 0.00 in 0 W/m2
01:40 41.4 °F 41.1 °F 29.99 in West 2 mph 6 mph 99% 0.00 in 0 W/m2
01:50 41 °F 40.7 °F 29.99 in West 1 mph 3 mph 99% 0.00 in 0 W/m2
02:00 40.5 °F 40.2 °F 29.99 in WSW 2 mph 6 mph 99% 0.00 in 0 W/m2
02:10 40.1 °F 39.8 °F 29.99 in West 2 mph 6 mph 99% 0.00 in 0 W/m2
02:20 39.9 °F 39.7 °F 30.00 in West 2 mph 7 mph 99% 0.00 in 0 W/m2
02:30 40.1 °F 39.8 °F 30.00 in WNW 1 mph 5 mph 99% 0.00 in 0 W/m2
02:40 40 °F 39.8 °F 30.00 in WNW 2 mph 5 mph 99% 0.00 in 0 W/m2
02:50 39.6 °F 39.3 °F 30.00 in WNW 1 mph 3 mph 99% 0.00 in 0 W/m2
03:00 39.2 °F 38.9 °F 30.00 in NW 1 mph 7 mph 99% 0.00 in 0 W/m2
03:10 39.6 °F 39.3 °F 30.00 in Calm   5 mph 99% 0.00 in 0 W/m2
03:20 39.3 °F 39 °F 30.01 in West 1 mph 3 mph 99% 0.00 in 0 W/m2
03:30 39 °F 38.8 °F 30.01 in WNW 1 mph 3 mph 99% 0.00 in 0 W/m2
03:40 39 °F 38.8 °F 30.01 in Calm   2 mph 99% 0.00 in 0 W/m2
03:50 38.8 °F 38.6 °F 30.01 in WSW 1 mph 3 mph 99% 0.00 in 0 W/m2
04:00 38.5 °F 38.2 °F 30.02 in NNW 2 mph 4 mph 99% 0.00 in 0 W/m2
04:10 38.5 °F 38.2 °F 30.02 in Calm   6 mph 99% 0.00 in 0 W/m2
04:20 38.1 °F 37.9 °F 30.02 in Calm   4 mph 99% 0.00 in 0 W/m2
04:30 37.9 °F 37.7 °F 30.02 in Calm   4 mph 99% 0.00 in 0 W/m2
04:40 38.1 °F 37.9 °F 30.02 in NW 1 mph 3 mph 99% 0.00 in 0 W/m2
04:50 38.3 °F 38 °F 30.02 in WNW 1 mph 5 mph 99% 0.00 in 0 W/m2
05:00 37.9 °F 37.7 °F 30.02 in NW 2 mph 5 mph 99% 0.00 in 0 W/m2
05:10 37.8 °F 37.5 °F 30.03 in WSW 1 mph 7 mph 99% 0.00 in 0 W/m2
05:20 37.6 °F 37.3 °F 30.02 in NW 1 mph 4 mph 99% 0.00 in 0 W/m2
05:30 37.4 °F 37.1 °F 30.03 in West 2 mph 6 mph 99% 0.00 in 0 W/m2
05:40 37.8 °F 37.5 °F 30.03 in West 3 mph 7 mph 99% 0.00 in 0 W/m2
Knjazevac, Serbia
Compliments of Weather Underground - 2 mb